createdAt,value
2023-03-28T00:02:06.546Z,2.20
2023-03-28T00:04:37.374Z,2.00
2023-03-28T00:07:05.710Z,2.17
2023-03-28T00:09:34.156Z,2.17
2023-03-28T00:12:02.480Z,2.30
2023-03-28T00:14:30.970Z,2.40
2023-03-28T00:17:01.942Z,1.73
2023-03-28T00:19:33.131Z,3.05
2023-03-28T00:22:02.588Z,2.28
2023-03-28T00:24:30.633Z,3.05
2023-03-28T00:27:00.705Z,2.30
2023-03-28T00:29:30.018Z,2.42
2023-03-28T00:31:58.432Z,2.85
2023-03-28T00:34:27.038Z,2.53
2023-03-28T00:36:55.174Z,3.60
2023-03-28T00:39:26.476Z,3.70
2023-03-28T00:41:55.674Z,3.47
2023-03-28T00:44:45.045Z,3.50
2023-03-28T00:47:20.769Z,2.80
2023-03-28T00:49:52.957Z,2.13
2023-03-28T00:52:24.313Z,2.13
2023-03-28T00:54:57.434Z,2.38
2023-03-28T00:57:27.241Z,2.40
2023-03-28T00:59:55.458Z,2.85
2023-03-28T01:02:24.337Z,2.70
2023-03-28T01:04:59.408Z,2.95
2023-03-28T01:07:35.147Z,3.17
2023-03-28T01:10:05.888Z,2.10
2023-03-28T01:12:34.996Z,2.33
2023-03-28T01:15:04.893Z,2.17
2023-03-28T01:17:48.177Z,2.55
2023-03-28T01:20:37.339Z,2.53
2023-03-28T01:23:47.617Z,2.78
2023-03-28T01:26:37.384Z,2.70
2023-03-28T01:29:48.981Z,2.40
2023-03-28T01:32:55.938Z,2.78
2023-03-28T01:35:59.132Z,2.72
2023-03-28T01:38:38.316Z,3.00
2023-03-28T01:41:13.782Z,2.20
2023-03-28T01:43:52.260Z,2.70
2023-03-28T01:46:24.796Z,2.63
2023-03-28T01:49:00.998Z,2.35
2023-03-28T01:51:37.922Z,2.30
2023-03-28T01:54:16.228Z,2.50
2023-03-28T01:56:51.390Z,2.88
2023-03-28T01:59:37.258Z,2.80
2023-03-28T02:02:44.904Z,2.55
2023-03-28T02:05:30.699Z,2.58
2023-03-28T02:08:01.259Z,3.15
2023-03-28T02:10:44.570Z,5.97
2023-03-28T02:13:37.622Z,2.40
2023-03-28T02:16:26.869Z,2.92
2023-03-28T02:19:02.279Z,3.38
2023-03-28T02:22:04.186Z,3.10
2023-03-28T02:24:52.040Z,2.90
2023-03-28T02:27:39.617Z,4.32
2023-03-28T02:30:34.510Z,3.65
2023-03-28T02:33:05.197Z,3.47
2023-03-28T02:35:53.073Z,3.20
2023-03-28T02:38:31.809Z,2.78
2023-03-28T02:41:08.523Z,2.35
2023-03-28T02:44:05.301Z,1.58
2023-03-28T02:46:39.929Z,1.80
2023-03-28T02:49:29.929Z,2.38
2023-03-28T02:52:11.711Z,2.70
2023-03-28T02:54:50.815Z,2.55
2023-03-28T02:57:43.871Z,1.63
2023-03-28T03:00:18.772Z,3.47
2023-03-28T03:02:50.528Z,1.67
2023-03-28T03:05:20.753Z,2.42
2023-03-28T03:07:49.713Z,1.60
2023-03-28T03:10:18.894Z,1.85
2023-03-28T03:12:48.956Z,2.28
2023-03-28T03:15:18.942Z,2.28
2023-03-28T03:17:53.712Z,2.10
2023-03-28T03:20:27.224Z,1.95
2023-03-28T03:22:56.837Z,2.72
2023-03-28T03:25:25.009Z,2.47
2023-03-28T03:27:58.487Z,2.75
2023-03-28T03:30:30.155Z,2.90
2023-03-28T03:33:18.545Z,3.33
2023-03-28T03:35:49.995Z,3.15
2023-03-28T03:38:20.825Z,3.20
2023-03-28T03:40:49.099Z,3.00
2023-03-28T03:43:17.662Z,2.50
2023-03-28T03:45:47.920Z,2.65
2023-03-28T03:48:16.084Z,2.58
2023-03-28T03:50:44.262Z,2.45
2023-03-28T03:53:16.717Z,1.92
2023-03-28T03:55:51.254Z,2.30
2023-03-28T03:58:20.617Z,2.17
2023-03-28T04:00:52.094Z,2.08
2023-03-28T04:03:48.262Z,2.25
2023-03-28T04:06:24.289Z,2.03
2023-03-28T04:08:52.711Z,2.85
2023-03-28T04:11:36.120Z,1.98
2023-03-28T04:14:04.493Z,2.72
2023-03-28T04:16:40.912Z,2.60
2023-03-28T04:19:13.792Z,1.70
2023-03-28T04:21:44.059Z,2.23
2023-03-28T04:24:15.659Z,1.88
2023-03-28T04:26:50.191Z,2.08
2023-03-28T04:29:25.032Z,1.88
2023-03-28T04:32:15.425Z,2.95
2023-03-28T04:35:03.390Z,2.15
2023-03-28T04:37:31.803Z,2.80
2023-03-28T04:40:10.312Z,2.65
2023-03-28T04:42:47.073Z,2.20
2023-03-28T04:45:26.381Z,2.85
2023-03-28T04:47:57.676Z,2.30
2023-03-28T04:50:26.614Z,2.38
2023-03-28T04:52:54.937Z,2.28
2023-03-28T04:55:24.128Z,2.20
2023-03-28T04:57:52.396Z,2.70
2023-03-28T05:00:23.547Z,2.70
2023-03-28T05:03:14.905Z,2.80
2023-03-28T05:05:53.991Z,2.95
2023-03-28T05:08:24.236Z,2.40
2023-03-28T05:10:52.858Z,2.42
2023-03-28T05:13:23.647Z,3.00
2023-03-28T05:16:03.259Z,2.95
2023-03-28T05:18:48.672Z,2.40
2023-03-28T05:21:20.919Z,2.13
2023-03-28T05:23:53.288Z,2.38
2023-03-28T05:26:24.061Z,2.38
2023-03-28T05:28:53.509Z,2.30
2023-03-28T05:31:21.851Z,2.65
2023-03-28T05:34:04.332Z,2.00
2023-03-28T05:36:40.077Z,2.67
2023-03-28T05:39:20.556Z,2.88
2023-03-28T05:41:48.863Z,2.65
2023-03-28T05:44:18.688Z,2.42
2023-03-28T05:47:07.405Z,3.00
2023-03-28T05:49:36.863Z,2.83
2023-03-28T05:52:05.210Z,2.00
2023-03-28T05:54:33.839Z,2.20
2023-03-28T05:57:01.926Z,1.80
2023-03-28T05:59:30.228Z,2.58
2023-03-28T06:01:58.467Z,2.47
2023-03-28T06:04:28.118Z,2.17
2023-03-28T06:06:58.346Z,2.40
2023-03-28T06:09:31.676Z,1.98
2023-03-28T06:12:01.624Z,2.80
2023-03-28T06:14:31.817Z,3.03
2023-03-28T06:17:03.358Z,2.58
2023-03-28T06:19:38.569Z,2.42
2023-03-28T06:22:08.722Z,2.50
2023-03-28T06:24:37.226Z,2.90
2023-03-28T06:27:05.782Z,2.72
2023-03-28T06:29:38.288Z,1.80
2023-03-28T06:32:06.948Z,2.28
2023-03-28T06:34:35.693Z,2.50
2023-03-28T06:37:03.940Z,2.35
2023-03-28T06:39:50.687Z,2.90
2023-03-28T06:42:19.072Z,2.42
2023-03-28T06:44:56.484Z,2.15
2023-03-28T06:47:31.449Z,2.17
2023-03-28T06:49:59.553Z,2.45
2023-03-28T06:52:35.068Z,3.15
2023-03-28T06:55:08.264Z,2.20
2023-03-28T06:57:36.688Z,2.25
2023-03-28T07:00:16.598Z,2.45
2023-03-28T07:03:05.566Z,2.78
2023-03-28T07:05:38.512Z,2.60
2023-03-28T07:08:07.565Z,2.15
2023-03-28T07:10:37.583Z,2.22
2023-03-28T07:13:06.247Z,3.08
2023-03-28T07:15:35.478Z,3.03
2023-03-28T07:18:07.063Z,2.88
2023-03-28T07:20:35.484Z,2.83
2023-03-28T07:23:03.537Z,2.80
2023-03-28T07:25:34.275Z,3.20
2023-03-28T07:28:03.977Z,2.25
2023-03-28T07:30:32.181Z,2.45
2023-03-28T07:33:14.106Z,2.83
2023-03-28T07:35:45.697Z,2.00
2023-03-28T07:38:15.456Z,2.05
2023-03-28T07:40:50.075Z,3.13
2023-03-28T07:43:19.724Z,2.58
2023-03-28T07:45:49.010Z,2.80
2023-03-28T07:48:17.309Z,2.45
2023-03-28T07:50:45.395Z,2.75
2023-03-28T07:53:16.448Z,3.00
2023-03-28T07:55:54.234Z,2.97
2023-03-28T07:58:31.260Z,2.85
2023-03-28T08:01:06.374Z,3.13
2023-03-28T08:03:47.245Z,2.10
2023-03-28T08:06:30.945Z,2.40
2023-03-28T08:09:02.102Z,2.20
2023-03-28T08:11:37.334Z,2.88
2023-03-28T08:14:09.227Z,2.22
2023-03-28T08:16:38.373Z,2.47
2023-03-28T08:19:11.243Z,2.35
2023-03-28T08:22:18.669Z,1.70
2023-03-28T08:25:15.876Z,2.10
2023-03-28T08:27:45.689Z,1.70
2023-03-28T08:30:15.622Z,1.77
2023-03-28T08:32:59.512Z,1.77
2023-03-28T08:35:27.646Z,2.42
2023-03-28T08:37:59.756Z,2.15
2023-03-28T08:40:30.277Z,2.28
2023-03-28T08:43:24.888Z,2.53
2023-03-28T08:45:56.465Z,2.13
2023-03-28T08:48:30.650Z,2.50
2023-03-28T08:51:02.691Z,2.20
2023-03-28T08:53:35.545Z,2.55
2023-03-28T08:56:07.642Z,2.30
2023-03-28T08:58:47.717Z,1.90
2023-03-28T09:01:20.936Z,2.40
2023-03-28T09:03:50.292Z,3.10
2023-03-28T09:06:30.786Z,2.35
2023-03-28T09:09:32.438Z,2.22
2023-03-28T09:12:37.159Z,2.10
2023-03-28T09:15:23.938Z,2.33
2023-03-28T09:18:06.576Z,2.40
2023-03-28T09:20:43.284Z,2.22
2023-03-28T09:23:59.021Z,2.00
2023-03-28T09:26:49.168Z,3.08
2023-03-28T09:29:25.911Z,2.90
2023-03-28T09:32:02.326Z,2.40
2023-03-28T09:34:40.690Z,1.85
2023-03-28T09:37:18.934Z,2.20
2023-03-28T09:39:52.248Z,1.75
2023-03-28T09:42:32.663Z,1.77
2023-03-28T09:45:40.513Z,1.75
2023-03-28T09:48:30.451Z,2.13
2023-03-28T09:51:04.096Z,1.70
2023-03-28T09:53:34.303Z,1.98
2023-03-28T09:56:05.852Z,2.10
2023-03-28T09:58:51.200Z,2.00
2023-03-28T10:01:36.893Z,2.03
2023-03-28T10:04:34.976Z,1.70
2023-03-28T10:07:34.843Z,1.77
2023-03-28T10:10:25.138Z,1.70
2023-03-28T10:13:02.867Z,1.70
2023-03-28T10:15:36.025Z,1.58
2023-03-28T10:18:27.094Z,1.42
2023-03-28T10:21:16.189Z,1.80
2023-03-28T10:26:26.091Z,1.70
2023-03-28T10:28:57.736Z,1.70
2023-03-28T10:31:30.624Z,1.73
2023-03-28T10:34:29.236Z,1.98
2023-03-28T10:37:27.277Z,2.15
2023-03-28T10:40:33.201Z,1.85
2023-03-28T10:43:15.245Z,1.45
2023-03-28T10:45:52.671Z,1.90
2023-03-28T10:48:31.262Z,1.77
2023-03-28T10:51:10.541Z,2.22
2023-03-28T10:53:53.977Z,1.70
2023-03-28T10:56:33.441Z,1.95
2023-03-28T10:59:31.514Z,1.70
2023-03-28T11:02:31.203Z,2.10
2023-03-28T11:05:03.722Z,1.80
2023-03-28T11:07:38.615Z,1.60
2023-03-28T11:10:44.521Z,1.83
2023-03-28T11:13:36.886Z,2.47
2023-03-28T11:16:11.606Z,1.48
2023-03-28T11:19:06.472Z,1.50
2023-03-28T11:21:49.536Z,1.70
2023-03-28T11:24:28.598Z,1.73
2023-03-28T11:27:20.504Z,1.55
2023-03-28T11:30:00.271Z,1.73
2023-03-28T11:32:41.842Z,1.70
2023-03-28T11:35:18.647Z,1.73
2023-03-28T11:37:59.708Z,1.77
2023-03-28T11:40:31.744Z,1.55
2023-03-28T11:43:08.068Z,1.48
2023-03-28T11:45:52.110Z,1.63
2023-03-28T11:48:28.104Z,1.70
2023-03-28T11:51:04.826Z,1.70
2023-03-28T11:54:03.811Z,1.73
2023-03-28T11:56:44.352Z,1.35
2023-03-28T11:59:22.969Z,1.70
2023-03-28T12:02:01.046Z,1.73
2023-03-28T12:04:32.870Z,1.67
2023-03-28T12:07:11.853Z,1.38
2023-03-28T12:09:58.942Z,1.67
2023-03-28T12:12:31.894Z,1.65
2023-03-28T12:15:06.256Z,1.52
2023-03-28T12:18:00.159Z,1.60
2023-03-28T12:20:33.198Z,2.10
2023-03-28T12:23:12.534Z,1.30
2023-03-28T12:26:07.837Z,1.65
2023-03-28T12:28:41.524Z,2.33
2023-03-28T12:31:16.526Z,1.60
2023-03-28T12:33:55.935Z,1.77
2023-03-28T12:36:53.433Z,1.63
2023-03-28T12:39:35.235Z,1.70
2023-03-28T12:42:13.114Z,2.13
2023-03-28T12:44:45.292Z,1.50
2023-03-28T12:47:18.112Z,1.20
2023-03-28T12:49:51.310Z,2.03
2023-03-28T12:52:24.560Z,1.70
2023-03-28T12:55:01.124Z,1.70
2023-03-28T12:57:48.556Z,1.60
2023-03-28T13:00:51.151Z,1.50
2023-03-28T13:06:25.363Z,1.70
2023-03-28T13:09:24.539Z,1.63
2023-03-28T13:11:59.010Z,2.05
2023-03-28T13:14:36.540Z,2.17
2023-03-28T13:17:19.474Z,1.70
2023-03-28T13:19:53.132Z,1.90
2023-03-28T13:22:34.385Z,1.90
2023-03-28T13:25:29.055Z,1.85
2023-03-28T13:28:00.434Z,1.45
2023-03-28T13:30:30.668Z,1.50
2023-03-28T13:33:02.065Z,1.65
2023-03-28T13:35:40.490Z,2.00
2023-03-28T13:38:23.848Z,1.75
2023-03-28T13:40:54.948Z,1.35
2023-03-28T13:43:27.875Z,1.70
2023-03-28T13:45:59.629Z,1.52
2023-03-28T13:48:34.351Z,1.50
2023-03-28T13:51:06.953Z,0.95
2023-03-28T13:53:46.994Z,1.20
2023-03-28T13:56:24.436Z,1.20
2023-03-28T13:58:55.320Z,1.33
2023-03-28T14:01:28.299Z,0.95
2023-03-28T14:03:56.830Z,1.90
2023-03-28T14:06:27.117Z,1.40
2023-03-28T14:09:02.465Z,1.77
2023-03-28T14:11:33.926Z,1.33
2023-03-28T14:14:08.123Z,1.30
2023-03-28T14:16:38.323Z,1.30
2023-03-28T14:19:07.729Z,1.50
2023-03-28T14:21:36.341Z,1.48
2023-03-28T14:24:08.970Z,1.50
2023-03-28T14:26:38.031Z,1.20
2023-03-28T14:29:08.711Z,1.25
2023-03-28T14:31:40.360Z,1.25
2023-03-28T14:34:24.192Z,1.25
2023-03-28T14:36:58.884Z,1.38
2023-03-28T14:39:30.034Z,1.30
2023-03-28T14:42:00.648Z,1.25
2023-03-28T14:44:31.498Z,1.35
2023-03-28T14:47:00.730Z,1.13
2023-03-28T14:49:29.545Z,1.63
2023-03-28T14:51:59.476Z,1.38
2023-03-28T14:54:34.620Z,1.15
2023-03-28T14:57:07.225Z,1.25
2023-03-28T14:59:40.889Z,1.30
2023-03-28T15:02:20.041Z,1.42
2023-03-28T15:04:49.107Z,1.50
2023-03-28T15:07:23.937Z,1.77
2023-03-28T15:10:11.999Z,1.63
2023-03-28T15:12:48.236Z,1.20
2023-03-28T15:15:22.433Z,1.30
2023-03-28T15:17:52.580Z,1.35
2023-03-28T15:20:25.024Z,1.67
2023-03-28T15:22:57.666Z,1.33
2023-03-28T15:25:27.988Z,1.52
2023-03-28T15:28:00.039Z,1.50
2023-03-28T15:30:30.012Z,1.85
2023-03-28T15:33:04.246Z,1.60
2023-03-28T15:35:38.225Z,1.30
2023-03-28T15:38:09.021Z,1.30
2023-03-28T15:40:43.393Z,1.30
2023-03-28T15:46:00.328Z,1.40
2023-03-28T15:48:29.811Z,1.20
2023-03-28T15:50:58.026Z,1.70
2023-03-28T15:53:29.846Z,1.10
2023-03-28T15:56:06.344Z,1.42
2023-03-28T15:58:36.096Z,1.40
2023-03-28T16:01:23.664Z,1.50
2023-03-28T16:03:53.327Z,2.30
2023-03-28T16:06:32.431Z,1.77
2023-03-28T16:09:16.415Z,1.33
2023-03-28T16:11:46.974Z,1.30
2023-03-28T16:14:38.941Z,1.23
2023-03-28T16:17:24.903Z,1.67
2023-03-28T16:20:04.091Z,1.33
2023-03-28T16:22:32.287Z,1.48
2023-03-28T16:25:00.330Z,1.52
2023-03-28T16:27:31.277Z,1.55
2023-03-28T16:29:59.478Z,1.65
2023-03-28T16:32:28.005Z,1.42
2023-03-28T16:34:56.089Z,1.33
2023-03-28T16:37:24.380Z,1.20
2023-03-28T16:39:52.656Z,1.77
2023-03-28T16:42:21.735Z,1.77
2023-03-28T16:44:51.318Z,1.50
2023-03-28T16:47:19.517Z,1.73
2023-03-28T16:49:47.688Z,1.92
2023-03-28T16:52:15.835Z,1.50
2023-03-28T16:54:44.389Z,2.55
2023-03-28T16:57:12.874Z,2.55
2023-03-28T16:59:42.138Z,2.10
2023-03-28T17:02:12.789Z,1.70
2023-03-28T17:04:40.877Z,1.83
2023-03-28T17:07:09.173Z,1.83
2023-03-28T17:09:37.553Z,1.40
2023-03-28T17:12:05.955Z,1.77
2023-03-28T17:14:34.313Z,2.00
2023-03-28T17:17:03.635Z,1.63
2023-03-28T17:19:34.708Z,1.60
2023-03-28T17:22:03.051Z,1.60
2023-03-28T17:24:31.422Z,1.95
2023-03-28T17:26:59.823Z,1.92
2023-03-28T17:29:28.480Z,1.30
2023-03-28T17:31:57.214Z,2.22
2023-03-28T17:34:25.474Z,1.65
2023-03-28T17:36:55.762Z,1.55
2023-03-28T17:39:24.235Z,2.15
2023-03-28T17:41:52.311Z,1.67
2023-03-28T17:44:20.493Z,1.92
2023-03-28T17:46:49.009Z,2.08
2023-03-28T17:49:18.487Z,1.75
2023-03-28T17:51:47.030Z,2.03
2023-03-28T17:54:22.272Z,1.77
2023-03-28T17:56:50.753Z,2.03
2023-03-28T17:59:19.016Z,1.98
2023-03-28T18:01:49.011Z,1.73
2023-03-28T18:04:17.582Z,1.73
2023-03-28T18:07:16.205Z,2.38
2023-03-28T18:09:47.215Z,1.90
2023-03-28T18:12:15.730Z,1.90
2023-03-28T18:14:44.736Z,2.17
2023-03-28T18:17:13.247Z,2.03
2023-03-28T18:19:41.654Z,2.33
2023-03-28T18:22:09.946Z,2.10
2023-03-28T18:24:38.455Z,2.10
2023-03-28T18:27:07.982Z,2.05
2023-03-28T18:29:37.913Z,2.30
2023-03-28T18:32:06.500Z,2.00
2023-03-28T18:34:34.691Z,2.10
2023-03-28T18:37:04.415Z,2.63
2023-03-28T18:39:32.484Z,2.15
2023-03-28T18:42:00.797Z,2.38
2023-03-28T18:44:30.293Z,2.60
2023-03-28T18:46:58.459Z,2.60
2023-03-28T18:49:28.480Z,2.30
2023-03-28T18:52:03.925Z,3.00
2023-03-28T18:54:33.009Z,2.35
2023-03-28T18:57:01.864Z,2.28
2023-03-28T18:59:32.383Z,2.60
2023-03-28T19:02:00.961Z,2.75
2023-03-28T19:04:29.418Z,2.67
2023-03-28T19:06:57.761Z,2.75
2023-03-28T19:09:26.331Z,2.53
2023-03-28T19:11:55.035Z,2.85
2023-03-28T19:14:23.260Z,2.70
2023-03-28T19:16:52.802Z,2.45
2023-03-28T19:19:21.113Z,2.63
2023-03-28T19:21:49.539Z,3.20
2023-03-28T19:24:20.118Z,3.25
2023-03-28T19:26:48.625Z,3.40
2023-03-28T19:29:17.034Z,3.70
2023-03-28T19:31:45.962Z,3.35
2023-03-28T19:34:17.824Z,3.30
2023-03-28T19:36:46.300Z,3.55
2023-03-28T19:39:14.818Z,3.13
2023-03-28T19:41:43.086Z,3.00
2023-03-28T19:44:11.239Z,3.03
2023-03-28T19:46:39.638Z,3.13
2023-03-28T19:49:07.991Z,3.05
2023-03-28T19:51:37.618Z,3.55
2023-03-28T19:54:05.902Z,3.40
2023-03-28T19:56:34.099Z,3.38
2023-03-28T19:59:02.511Z,3.50
2023-03-28T20:01:30.664Z,3.80
2023-03-28T20:03:59.053Z,3.15
2023-03-28T20:06:27.096Z,2.95
2023-03-28T20:08:57.109Z,3.45
2023-03-28T20:11:26.525Z,3.53
2023-03-28T20:13:54.661Z,2.70
2023-03-28T20:16:23.195Z,2.85
2023-03-28T20:18:51.380Z,3.20
2023-03-28T20:21:19.482Z,2.85
2023-03-28T20:23:47.778Z,2.92
2023-03-28T20:26:19.403Z,2.92
2023-03-28T20:28:50.098Z,3.22
2023-03-28T20:31:19.998Z,3.38
2023-03-28T20:33:48.182Z,2.88
2023-03-28T20:36:17.409Z,2.80
2023-03-28T20:38:45.764Z,2.70
2023-03-28T20:41:15.542Z,3.15
2023-03-28T20:43:47.744Z,2.88
2023-03-28T20:46:19.502Z,2.72
2023-03-28T20:48:53.133Z,2.30
2023-03-28T20:51:26.046Z,2.72
2023-03-28T20:53:57.200Z,2.90
2023-03-28T20:56:27.372Z,2.60
2023-03-28T20:58:59.448Z,2.65
2023-03-28T21:01:29.917Z,2.20
2023-03-28T21:04:01.741Z,2.38
2023-03-28T21:06:33.528Z,2.20
2023-03-28T21:09:04.735Z,2.40
2023-03-28T21:11:35.432Z,2.55
2023-03-28T21:14:06.503Z,2.10
2023-03-28T21:16:38.687Z,2.20
2023-03-28T21:19:07.848Z,2.47
2023-03-28T21:21:36.574Z,2.58
2023-03-28T21:24:07.140Z,2.20
2023-03-28T21:26:36.131Z,2.88
2023-03-28T21:29:05.744Z,3.92
2023-03-28T21:31:34.234Z,3.38
2023-03-28T21:34:07.398Z,3.30
2023-03-28T21:36:35.826Z,3.42
2023-03-28T21:39:04.411Z,2.90
2023-03-28T21:41:32.884Z,2.88
2023-03-28T21:44:01.195Z,3.10
2023-03-28T21:46:31.203Z,2.83
2023-03-28T21:48:59.794Z,2.90
2023-03-28T21:51:28.021Z,2.35
2023-03-28T21:53:56.804Z,2.42
2023-03-28T21:56:25.351Z,2.22
2023-03-28T21:58:53.493Z,2.60
2023-03-28T22:01:21.826Z,2.50
2023-03-28T22:03:52.106Z,2.70
2023-03-28T22:06:20.694Z,2.63
2023-03-28T22:08:52.772Z,2.72
2023-03-28T22:11:27.851Z,2.40
2023-03-28T22:14:02.600Z,2.85
2023-03-28T22:16:36.488Z,2.30
2023-03-28T22:19:06.725Z,2.53
2023-03-28T22:21:35.113Z,2.50
2023-03-28T22:24:06.345Z,2.72
2023-03-28T22:26:35.881Z,2.78
2023-03-28T22:29:05.087Z,3.53
2023-03-28T22:31:33.842Z,2.35
2023-03-28T22:34:02.185Z,2.70
2023-03-28T22:36:31.808Z,2.47
2023-03-28T22:39:00.013Z,2.47
2023-03-28T22:41:31.520Z,2.20
2023-03-28T22:44:00.224Z,2.63
2023-03-28T22:46:28.401Z,2.22
2023-03-28T22:48:58.259Z,1.85
2023-03-28T22:54:16.071Z,2.38
2023-03-28T22:56:45.990Z,1.90
2023-03-28T22:59:14.627Z,1.90
2023-03-28T23:01:45.673Z,1.70
2023-03-28T23:04:13.980Z,1.42
2023-03-28T23:06:43.220Z,2.03
2023-03-28T23:09:12.906Z,1.83
2023-03-28T23:11:42.732Z,1.70
2023-03-28T23:14:11.417Z,2.65
2023-03-28T23:16:39.997Z,2.10
2023-03-28T23:19:08.411Z,1.50
2023-03-28T23:21:37.130Z,2.50
2023-03-28T23:24:06.826Z,2.03
2023-03-28T23:26:35.083Z,2.60
2023-03-28T23:29:05.188Z,2.28
2023-03-28T23:31:33.386Z,2.10
2023-03-28T23:34:01.496Z,2.13
2023-03-28T23:36:30.268Z,2.55
2023-03-28T23:38:58.621Z,2.92
2023-03-28T23:41:26.678Z,2.63
2023-03-28T23:43:54.962Z,2.60
2023-03-28T23:46:25.093Z,2.70
2023-03-28T23:48:53.233Z,3.15
2023-03-28T23:51:21.508Z,2.85
2023-03-28T23:53:50.017Z,3.30
2023-03-28T23:56:18.546Z,2.95
2023-03-28T23:58:46.721Z,2.97
